createdAt,value
2018-05-03T00:00:26.056Z,99108.26
2018-05-03T00:02:59.243Z,99111.03
2018-05-03T00:05:33.673Z,99109.13
2018-05-03T00:08:06.724Z,99108.55
2018-05-03T00:10:39.847Z,99115.01
2018-05-03T00:13:13.200Z,99117.84
2018-05-03T00:15:47.020Z,99107.52
2018-05-03T00:18:20.041Z,99099.30
2018-05-03T00:20:53.415Z,99095.58
2018-05-03T00:23:28.079Z,99086.05
2018-05-03T00:26:01.427Z,99080.81
2018-05-03T00:28:34.794Z,99081.70
2018-05-03T00:31:08.593Z,99075.91
2018-05-03T00:33:41.617Z,99065.67
2018-05-03T00:36:15.094Z,99061.91
2018-05-03T00:38:49.211Z,99065.22
2018-05-03T00:41:23.256Z,99088.24
2018-05-03T00:43:57.580Z,99111.40
2018-05-03T00:46:30.754Z,99141.59
2018-05-03T00:49:04.456Z,99159.31
2018-05-03T00:51:37.970Z,99184.45
2018-05-03T00:54:19.759Z,99199.89
2018-05-03T00:56:54.675Z,99192.41
2018-05-03T00:59:28.636Z,99164.25
2018-05-03T01:02:03.821Z,99144.33
2018-05-03T01:04:36.982Z,99139.69
2018-05-03T01:07:10.704Z,99130.67
2018-05-03T01:09:44.717Z,99141.52
2018-05-03T01:12:17.787Z,99134.59
2018-05-03T01:14:52.020Z,99121.23
2018-05-03T01:17:25.879Z,99115.94
2018-05-03T01:19:59.164Z,99104.17
2018-05-03T01:22:33.518Z,99098.73
2018-05-03T01:25:07.708Z,99109.69
2018-05-03T01:27:40.688Z,99110.05
2018-05-03T01:30:14.197Z,99095.98
2018-05-03T01:32:47.220Z,99071.37
2018-05-03T01:37:27.546Z,99043.43
2018-05-03T01:40:02.215Z,99055.20
2018-05-03T01:42:39.130Z,99085.55
2018-05-03T01:45:12.801Z,99094.45
2018-05-03T01:47:48.195Z,99095.83
2018-05-03T01:50:23.356Z,99101.45
2018-05-03T01:52:56.607Z,99103.02
2018-05-03T01:55:29.686Z,99103.54
2018-05-03T01:58:03.046Z,99096.20
2018-05-03T02:00:36.346Z,99102.95
2018-05-03T02:03:10.310Z,99102.56
2018-05-03T02:05:43.455Z,99109.37
2018-05-03T02:08:16.791Z,99115.18
2018-05-03T02:10:49.795Z,99117.62
2018-05-03T02:13:26.401Z,99115.30
2018-05-03T02:16:00.078Z,99107.78
2018-05-03T02:18:33.491Z,99106.58
2018-05-03T02:21:07.521Z,99106.50
2018-05-03T02:23:40.558Z,99109.48
2018-05-03T02:26:13.949Z,99100.05
2018-05-03T02:28:51.398Z,99093.20
2018-05-03T02:31:24.355Z,99084.77
2018-05-03T02:33:59.828Z,99085.91
2018-05-03T02:36:33.001Z,99086.25
2018-05-03T02:39:06.306Z,99082.55
2018-05-03T02:41:39.597Z,99098.06
2018-05-03T02:44:12.734Z,99102.95
2018-05-03T02:46:45.905Z,99096.50
2018-05-03T02:49:19.099Z,99106.84
2018-05-03T02:51:52.042Z,99110.22
2018-05-03T02:54:25.111Z,99112.18
2018-05-03T02:57:07.099Z,99118.98
2018-05-03T03:04:07.370Z,99121.33
2018-05-03T03:06:55.763Z,99131.28
2018-05-03T03:11:37.915Z,99128.76
2018-05-03T03:16:25.086Z,99128.17
2018-05-03T03:20:16.218Z,99130.52
2018-05-03T03:25:07.596Z,99145.63
2018-05-03T03:29:58.886Z,99148.32
2018-05-03T03:34:47.091Z,99159.44
2018-05-03T03:39:33.821Z,99167.46
2018-05-03T03:42:12.695Z,99169.05
2018-05-03T03:44:48.609Z,99180.05
2018-05-03T03:47:21.684Z,99185.08
2018-05-03T03:49:54.784Z,99181.69
2018-05-03T03:52:30.222Z,99170.04
2018-05-03T03:55:03.394Z,99172.39
2018-05-03T03:57:38.045Z,99182.58
2018-05-03T04:00:11.275Z,99175.22
2018-05-03T04:02:44.284Z,99173.34
2018-05-03T04:05:17.491Z,99177.64
2018-05-03T04:07:50.853Z,99169.84
2018-05-03T04:10:23.986Z,99178.72
2018-05-03T04:12:57.097Z,99170.12
2018-05-03T04:15:32.277Z,99177.47
2018-05-03T04:20:20.538Z,99165.30
2018-05-03T04:23:01.195Z,99169.09
2018-05-03T04:25:45.682Z,99164.07
2018-05-03T04:28:18.736Z,99172.28
2018-05-03T04:30:52.447Z,99179.39
2018-05-03T04:33:29.459Z,99189.29
2018-05-03T04:36:03.994Z,99197.81
2018-05-03T04:38:37.755Z,99196.66
2018-05-03T04:41:11.280Z,99202.28
2018-05-03T04:43:44.816Z,99204.26
2018-05-03T05:02:06.474Z,99220.24
2018-05-03T05:04:40.717Z,99215.61
2018-05-03T05:07:24.128Z,99213.14
2018-05-03T05:09:57.995Z,99213.89
2018-05-03T05:12:31.706Z,99212.64
2018-05-03T05:15:06.127Z,99218.41
2018-05-03T05:17:40.538Z,99220.76
2018-05-03T05:20:15.177Z,99228.14
2018-05-03T05:22:51.715Z,99233.73
2018-05-03T05:25:25.727Z,99230.43
2018-05-03T05:28:01.930Z,99232.25
2018-05-03T05:30:36.638Z,99236.84
2018-05-03T05:33:12.575Z,99233.25
2018-05-03T05:35:48.167Z,99239.00
2018-05-03T05:38:22.409Z,99239.23
2018-05-03T05:40:56.165Z,99247.63
2018-05-03T05:43:30.422Z,99252.90
2018-05-03T05:46:06.011Z,99246.77
2018-05-03T05:48:41.450Z,99244.98
2018-05-03T05:51:16.051Z,99246.28
2018-05-03T05:53:49.812Z,99250.30
2018-05-03T05:56:27.822Z,99257.41
2018-05-03T05:59:02.323Z,99259.06
2018-05-03T06:01:38.576Z,99260.84
2018-05-03T06:04:12.420Z,99261.59
2018-05-03T06:06:47.037Z,99253.14
2018-05-03T06:09:20.968Z,99249.17
2018-05-03T06:11:54.723Z,99243.73
2018-05-03T06:14:30.476Z,99244.03
2018-05-03T06:17:04.467Z,99243.84
2018-05-03T06:19:40.554Z,99251.29
2018-05-03T06:22:15.293Z,99254.33
2018-05-03T06:24:52.196Z,99257.30
2018-05-03T06:27:26.690Z,99267.44
2018-05-03T06:30:00.584Z,99268.26
2018-05-03T06:32:34.726Z,99267.41
2018-05-03T06:35:10.077Z,99271.45
2018-05-03T06:37:44.568Z,99273.25
2018-05-03T06:40:19.765Z,99270.40
2018-05-03T06:42:54.598Z,99272.56
2018-05-03T06:45:28.481Z,99287.57
2018-05-03T06:48:03.473Z,99292.20
2018-05-03T06:50:37.246Z,99299.66
2018-05-03T06:53:11.553Z,99298.31
2018-05-03T06:55:45.273Z,99299.69
2018-05-03T06:58:19.232Z,99300.91
2018-05-03T07:00:53.348Z,99299.30
2018-05-03T07:03:27.252Z,99302.78
2018-05-03T07:06:01.230Z,99304.56
2018-05-03T07:08:35.301Z,99300.81
2018-05-03T07:11:09.681Z,99298.90
2018-05-03T07:13:44.249Z,99304.33
2018-05-03T07:16:21.220Z,99304.47
2018-05-03T07:18:56.650Z,99310.02
2018-05-03T07:21:32.784Z,99323.59
2018-05-03T07:24:06.630Z,99335.50
2018-05-03T07:26:42.791Z,99337.50
2018-05-03T07:29:19.411Z,99343.42
2018-05-03T07:31:54.850Z,99350.12
2018-05-03T07:34:29.207Z,99356.91
2018-05-03T07:37:03.867Z,99352.99
2018-05-03T07:39:39.324Z,99360.79
2018-05-03T07:42:14.453Z,99362.13
2018-05-03T07:44:48.681Z,99365.22
2018-05-03T07:47:22.764Z,99369.85
2018-05-03T07:49:56.708Z,99357.56
2018-05-03T07:52:30.582Z,99358.91
2018-05-03T07:55:06.760Z,99366.63
2018-05-03T07:57:40.948Z,99378.84
2018-05-03T08:00:15.004Z,99384.44
2018-05-03T08:02:49.575Z,99393.50
2018-05-03T08:05:23.747Z,99390.70
2018-05-03T08:07:58.576Z,99398.86
2018-05-03T08:10:33.161Z,99398.83
2018-05-03T08:13:07.256Z,99410.98
2018-05-03T08:15:45.312Z,99414.58
2018-05-03T08:18:19.435Z,99429.92
2018-05-03T08:20:53.137Z,99422.34
2018-05-03T08:23:28.247Z,99426.08
2018-05-03T08:26:02.886Z,99423.88
2018-05-03T08:28:36.787Z,99429.73
2018-05-03T08:31:11.181Z,99434.12
2018-05-03T08:36:13.380Z,99440.95
2018-05-03T08:38:47.525Z,99443.20
2018-05-03T08:41:21.397Z,99448.51
2018-05-03T08:43:56.297Z,99463.05
2018-05-03T08:46:30.093Z,99456.20
2018-05-03T08:49:06.507Z,99464.22
2018-05-03T08:51:40.869Z,99457.16
2018-05-03T08:54:14.333Z,99455.14
2018-05-03T08:56:48.183Z,99463.91
2018-05-03T08:59:21.631Z,99468.98
2018-05-03T09:01:55.200Z,99476.54
2018-05-03T09:04:29.014Z,99486.56
2018-05-03T09:07:02.527Z,99492.67
2018-05-03T09:09:36.462Z,99487.89
2018-05-03T09:12:12.620Z,99489.28
2018-05-03T09:14:47.219Z,99496.69
2018-05-03T09:17:20.984Z,99486.92
2018-05-03T09:19:55.154Z,99481.06
2018-05-03T09:22:30.095Z,99486.10
2018-05-03T09:25:04.207Z,99484.45
2018-05-03T09:27:38.208Z,99494.50
2018-05-03T09:30:12.125Z,99489.84
2018-05-03T09:32:47.503Z,99505.22
2018-05-03T09:35:21.529Z,99515.46
2018-05-03T09:37:56.263Z,99505.52
2018-05-03T09:40:30.525Z,99509.95
2018-05-03T09:43:04.611Z,99520.16
2018-05-03T09:45:38.140Z,99519.49
2018-05-03T09:48:12.056Z,99511.89
2018-05-03T09:50:46.639Z,99521.13
2018-05-03T09:53:20.684Z,99525.66
2018-05-03T09:55:54.913Z,99525.52
2018-05-03T09:58:28.681Z,99525.42
2018-05-03T10:01:02.231Z,99526.08
2018-05-03T10:03:36.040Z,99540.22
2018-05-03T10:06:11.758Z,99534.71
2018-05-03T10:08:46.881Z,99534.72
2018-05-03T10:11:20.799Z,99525.62
2018-05-03T10:13:54.551Z,99532.05
2018-05-03T10:16:28.321Z,99534.55
2018-05-03T10:19:02.215Z,99530.95
2018-05-03T10:21:36.283Z,99534.11
2018-05-03T10:24:10.080Z,99546.16
2018-05-03T10:26:43.978Z,99545.73
2018-05-03T10:29:18.244Z,99548.83
2018-05-03T10:31:54.268Z,99537.91
2018-05-03T10:34:28.692Z,99537.49
2018-05-03T10:37:04.049Z,99531.28
2018-05-03T10:39:37.718Z,99537.02
2018-05-03T10:42:12.745Z,99540.55
2018-05-03T10:44:46.275Z,99539.28
2018-05-03T10:47:19.995Z,99537.50
2018-05-03T10:49:54.652Z,99536.58
2018-05-03T10:52:30.409Z,99535.48
2018-05-03T10:55:04.185Z,99550.07
2018-05-03T10:57:39.363Z,99530.58
2018-05-03T11:00:14.223Z,99528.95
2018-05-03T11:02:47.965Z,99526.58
2018-05-03T11:05:21.781Z,99527.14
2018-05-03T11:07:55.800Z,99542.09
2018-05-03T11:10:29.424Z,99551.03
2018-05-03T11:13:03.193Z,99538.23
2018-05-03T11:15:36.899Z,99525.58
2018-05-03T11:18:10.446Z,99523.14
2018-05-03T11:20:44.883Z,99513.36
2018-05-03T11:23:18.429Z,99533.33
2018-05-03T11:25:54.579Z,99547.05
2018-05-03T11:28:28.254Z,99537.02
2018-05-03T11:31:02.051Z,99543.19
2018-05-03T11:33:38.535Z,99553.48
2018-05-03T11:36:13.645Z,99551.76
2018-05-03T11:39:01.924Z,99528.86
2018-05-03T11:41:45.374Z,99541.97
2018-05-03T11:44:23.383Z,99549.98
2018-05-03T11:47:02.707Z,99543.01
2018-05-03T11:49:37.068Z,99526.38
2018-05-03T11:52:11.510Z,99526.55
2018-05-03T11:54:45.157Z,99537.59
2018-05-03T11:57:21.512Z,99523.31
2018-05-03T11:59:54.862Z,99539.38
2018-05-03T12:02:32.552Z,99534.20
2018-05-03T12:05:06.075Z,99538.48
2018-05-03T12:07:40.283Z,99536.95
2018-05-03T12:10:14.022Z,99534.11
2018-05-03T12:12:47.999Z,99540.82
2018-05-03T12:15:22.015Z,99538.05
2018-05-03T12:17:58.328Z,99529.70
2018-05-03T12:20:32.709Z,99546.14
2018-05-03T12:23:10.285Z,99541.13
2018-05-03T12:25:46.101Z,99547.06
2018-05-03T12:28:36.657Z,99559.63
2018-05-03T12:31:20.960Z,99536.84
2018-05-03T12:33:55.391Z,99528.84
2018-05-03T12:36:31.460Z,99553.81
2018-05-03T12:39:06.956Z,99548.92
2018-05-03T12:41:43.436Z,99550.12
2018-05-03T12:44:19.289Z,99543.96
2018-05-03T12:46:54.405Z,99548.52
2018-05-03T12:49:28.042Z,99544.03
2018-05-03T12:52:03.149Z,99542.77
2018-05-03T12:54:38.065Z,99540.63
2018-05-03T12:57:12.122Z,99535.31
2018-05-03T12:59:47.993Z,99547.19
2018-05-03T13:02:21.457Z,99536.96
2018-05-03T13:04:57.655Z,99545.36
2018-05-03T13:07:31.344Z,99540.83
2018-05-03T13:10:07.559Z,99543.69
2018-05-03T13:12:44.920Z,99528.13
2018-05-03T13:15:21.500Z,99537.92
2018-05-03T13:17:55.944Z,99536.47
2018-05-03T13:20:30.486Z,99532.31
2018-05-03T13:23:08.617Z,99536.17
2018-05-03T13:25:52.963Z,99533.34
2018-05-03T13:28:31.149Z,99541.75
2018-05-03T13:31:08.899Z,99545.11
2018-05-03T13:33:43.003Z,99544.64
2018-05-03T13:36:17.710Z,99545.66
2018-05-03T13:38:53.480Z,99544.64
2018-05-03T13:41:29.180Z,99522.38
2018-05-03T13:44:06.463Z,99531.09
2018-05-03T13:46:41.328Z,99536.83
2018-05-03T13:49:17.386Z,99538.90
2018-05-03T13:51:52.623Z,99539.09
2018-05-03T13:54:27.803Z,99529.80
2018-05-03T13:57:09.243Z,99551.83
2018-05-03T13:59:44.017Z,99537.95
2018-05-03T14:02:18.107Z,99551.56
2018-05-03T14:04:55.134Z,99536.80
2018-05-03T14:07:31.399Z,99553.97
2018-05-03T14:10:08.149Z,99538.27
2018-05-03T14:12:42.428Z,99548.23
2018-05-03T14:15:16.984Z,99561.56
2018-05-03T14:17:53.458Z,99549.97
2018-05-03T14:20:28.083Z,99546.89
2018-05-03T14:23:02.634Z,99549.17
2018-05-03T14:25:38.756Z,99540.80
2018-05-03T14:28:21.848Z,99552.02
2018-05-03T14:31:00.487Z,99545.90
2018-05-03T14:33:39.590Z,99530.16
2018-05-03T14:36:15.644Z,99545.09
2018-05-03T14:38:51.119Z,99540.06
2018-05-03T14:41:29.814Z,99548.70
2018-05-03T14:44:06.449Z,99553.02
2018-05-03T14:46:40.516Z,99548.51
2018-05-03T14:49:14.166Z,99554.14
2018-05-03T14:51:48.590Z,99545.31
2018-05-03T14:54:22.392Z,99546.61
2018-05-03T14:56:59.595Z,99561.54
2018-05-03T14:59:33.616Z,99555.94
2018-05-03T15:08:38.655Z,99560.48
2018-05-03T15:11:14.222Z,99559.26
2018-05-03T15:13:49.640Z,99557.12
2018-05-03T15:16:23.647Z,99551.27
2018-05-03T15:18:58.746Z,99564.30
2018-05-03T15:21:33.790Z,99565.00
2018-05-03T15:24:07.779Z,99563.98
2018-05-03T15:26:55.197Z,99563.81
2018-05-03T15:29:32.098Z,99562.80
2018-05-03T15:32:05.825Z,99570.36
2018-05-03T15:34:41.459Z,99563.98
2018-05-03T15:37:17.330Z,99561.51
2018-05-03T15:39:52.696Z,99569.95
2018-05-03T15:42:27.922Z,99572.64
2018-05-03T15:45:03.524Z,99571.48
2018-05-03T15:47:38.480Z,99576.72
2018-05-03T15:50:13.292Z,99573.66
2018-05-03T15:52:47.280Z,99574.05
2018-05-03T15:55:21.233Z,99567.70
2018-05-03T15:57:55.395Z,99587.73
2018-05-03T16:00:29.529Z,99582.74
2018-05-03T16:03:04.147Z,99584.42
2018-05-03T16:05:39.282Z,99583.14
2018-05-03T16:08:13.295Z,99594.63
2018-05-03T16:10:47.258Z,99595.31
2018-05-03T16:13:21.573Z,99597.57
2018-05-03T16:15:55.447Z,99588.41
2018-05-03T16:18:31.523Z,99588.25
2018-05-03T16:21:05.395Z,99595.31
2018-05-03T16:23:43.334Z,99613.02
2018-05-03T16:26:16.970Z,99614.47
2018-05-03T16:28:53.420Z,99609.55
2018-05-03T16:31:27.202Z,99607.71
2018-05-03T16:34:01.255Z,99608.36
2018-05-03T16:36:36.190Z,99613.93
2018-05-03T16:39:11.684Z,99611.25
2018-05-03T16:41:45.944Z,99617.40
2018-05-03T16:44:19.616Z,99614.74
2018-05-03T16:46:53.672Z,99621.05
2018-05-03T16:49:31.970Z,99621.05
2018-05-03T16:52:06.619Z,99620.22
2018-05-03T16:54:41.816Z,99617.17
2018-05-03T16:57:16.985Z,99628.25
2018-05-03T16:59:52.125Z,99628.64
2018-05-03T17:02:27.129Z,99629.09
2018-05-03T17:05:01.284Z,99631.09
2018-05-03T17:07:37.325Z,99626.42
2018-05-03T17:10:10.927Z,99626.42
2018-05-03T17:12:45.142Z,99625.75
2018-05-03T17:15:18.887Z,99636.19
2018-05-03T17:17:52.760Z,99639.44
2018-05-03T17:20:27.314Z,99637.34
2018-05-03T17:23:00.791Z,99656.77
2018-05-03T17:25:34.732Z,99642.25
2018-05-03T17:28:09.068Z,99629.72
2018-05-03T17:30:43.451Z,99647.91
2018-05-03T17:33:18.993Z,99651.42
2018-05-03T17:35:54.103Z,99654.56
2018-05-03T17:38:30.971Z,99655.41
2018-05-03T17:41:04.585Z,99667.33
2018-05-03T17:43:38.582Z,99669.17
2018-05-03T17:46:13.149Z,99675.24
2018-05-03T17:48:49.010Z,99679.84
2018-05-03T17:51:22.946Z,99681.84
2018-05-03T17:53:56.444Z,99675.53
2018-05-03T17:56:30.391Z,99675.27
2018-05-03T17:59:04.704Z,99676.62
2018-05-03T18:01:38.427Z,99676.69
2018-05-03T18:04:13.125Z,99687.37
2018-05-03T18:06:50.135Z,99687.42
2018-05-03T18:09:26.643Z,99692.11
2018-05-03T18:12:01.516Z,99691.28
2018-05-03T18:14:36.236Z,99698.48
2018-05-03T18:17:09.614Z,99696.16
2018-05-03T18:19:45.667Z,99703.95
2018-05-03T18:22:21.182Z,99698.02
2018-05-03T18:24:55.143Z,99708.03
2018-05-03T18:27:28.984Z,99705.23
2018-05-03T18:30:02.988Z,99723.15
2018-05-03T18:32:36.872Z,99716.50
2018-05-03T18:35:13.059Z,99721.81
2018-05-03T18:37:47.805Z,99731.60
2018-05-03T18:40:22.226Z,99735.09
2018-05-03T18:45:35.770Z,99740.24
2018-05-03T18:48:09.516Z,99754.45
2018-05-03T18:50:46.371Z,99751.39
2018-05-03T18:53:20.123Z,99752.86
2018-05-03T18:55:53.906Z,99757.31
2018-05-03T18:58:28.316Z,99761.30
2018-05-03T19:01:04.747Z,99762.20
2018-05-03T19:03:39.386Z,99765.75
2018-05-03T19:06:16.378Z,99772.31
2018-05-03T19:08:54.048Z,99771.47
2018-05-03T19:11:37.199Z,99779.83
2018-05-03T19:14:12.841Z,99780.89
2018-05-03T19:16:46.793Z,99786.73
2018-05-03T19:19:21.055Z,99794.19
2018-05-03T19:22:00.735Z,99794.81
2018-05-03T19:24:36.945Z,99798.43
2018-05-03T19:27:12.640Z,99799.64
2018-05-03T19:29:48.094Z,99793.97
2018-05-03T19:32:27.640Z,99801.53
2018-05-03T19:35:02.053Z,99806.41
2018-05-03T19:37:36.044Z,99818.08
2018-05-03T19:40:09.463Z,99813.24
2018-05-03T19:42:43.737Z,99818.87
2018-05-03T19:45:17.400Z,99819.13
2018-05-03T19:47:53.155Z,99823.67
2018-05-03T19:50:28.940Z,99830.41
2018-05-03T19:53:02.837Z,99838.84
2018-05-03T19:55:37.410Z,99829.83
2018-05-03T19:58:11.017Z,99846.25
2018-05-03T20:00:45.195Z,99847.83
2018-05-03T20:03:21.057Z,99853.81
2018-05-03T20:05:56.748Z,99848.12
2018-05-03T20:08:31.763Z,99853.41
2018-05-03T20:11:07.140Z,99856.27
2018-05-03T20:13:40.534Z,99848.31
2018-05-03T20:16:15.072Z,99850.65
2018-05-03T20:18:48.704Z,99852.33
2018-05-03T20:21:26.062Z,99854.70
2018-05-03T20:24:00.326Z,99858.17
2018-05-03T20:26:36.996Z,99868.09
2018-05-03T20:29:12.143Z,99869.89
2018-05-03T20:31:48.317Z,99872.00
2018-05-03T20:34:23.585Z,99871.06
2018-05-03T20:36:57.047Z,99878.45
2018-05-03T20:39:34.138Z,99867.22
2018-05-03T20:42:07.749Z,99883.48
2018-05-03T20:44:44.037Z,99880.67
2018-05-03T20:47:18.218Z,99878.73
2018-05-03T20:49:54.321Z,99888.78
2018-05-03T20:52:27.661Z,99893.73
2018-05-03T20:55:05.321Z,99889.57
2018-05-03T20:57:39.036Z,99887.91
2018-05-03T21:00:14.651Z,99897.73
2018-05-03T21:02:49.060Z,99885.58
2018-05-03T21:05:26.441Z,99890.30
2018-05-03T21:08:02.040Z,99892.05
2018-05-03T21:10:38.140Z,99885.81
2018-05-03T21:13:11.681Z,99898.27
2018-05-03T21:15:45.025Z,99897.14
2018-05-03T21:18:18.977Z,99900.17
2018-05-03T21:20:57.091Z,99896.12
2018-05-03T21:23:30.747Z,99908.30
2018-05-03T21:26:04.285Z,99910.35
2018-05-03T21:28:38.181Z,99905.02
2018-05-03T21:31:12.067Z,99909.80
2018-05-03T21:33:46.279Z,99904.74
2018-05-03T21:36:20.013Z,99907.91
2018-05-03T21:38:54.769Z,99907.03
2018-05-03T21:41:28.169Z,99910.24
2018-05-03T21:44:01.956Z,99911.33
2018-05-03T21:46:37.400Z,99920.89
2018-05-03T21:49:11.099Z,99924.33
2018-05-03T21:51:45.987Z,99931.84
2018-05-03T21:54:20.491Z,99935.62
2018-05-03T21:56:54.792Z,99942.58
2018-05-03T21:59:29.437Z,99937.84
2018-05-03T22:02:03.550Z,99936.64
2018-05-03T22:04:37.896Z,99941.94
2018-05-03T22:07:13.784Z,99945.55
2018-05-03T22:09:47.653Z,99953.64
2018-05-03T22:12:21.297Z,99943.53
2018-05-03T22:17:22.560Z,99945.71
2018-05-03T22:19:59.917Z,99945.55
2018-05-03T22:22:33.479Z,99953.48
2018-05-03T22:25:08.682Z,99951.08
2018-05-03T22:30:10.616Z,99952.88
2018-05-03T22:32:44.134Z,99961.36
2018-05-03T22:35:19.984Z,99964.71
2018-05-03T22:37:53.786Z,99968.43
2018-05-03T22:40:27.426Z,99970.59
2018-05-03T22:43:00.894Z,99963.91
2018-05-03T22:45:36.680Z,99961.35
2018-05-03T22:50:36.790Z,99973.98
2018-05-03T22:53:10.186Z,99980.61
2018-05-03T22:55:43.743Z,99974.55
2018-05-03T22:58:18.590Z,99979.09
2018-05-03T23:00:53.404Z,99988.06
2018-05-03T23:03:26.836Z,99987.41
2018-05-03T23:06:00.271Z,100001.15
2018-05-03T23:08:34.120Z,99999.98
2018-05-03T23:11:07.932Z,99994.34
2018-05-03T23:13:41.230Z,99991.16
2018-05-03T23:16:14.862Z,99995.69
2018-05-03T23:18:48.324Z,99999.03
2018-05-03T23:21:22.015Z,99995.78
2018-05-03T23:23:58.125Z,99999.06
2018-05-03T23:26:32.026Z,99992.66
2018-05-03T23:29:05.453Z,99999.19
2018-05-03T23:31:39.394Z,99997.09
2018-05-03T23:34:13.568Z,99995.88
2018-05-03T23:36:48.654Z,99999.66
2018-05-03T23:39:22.079Z,100000.33
2018-05-03T23:41:55.572Z,100010.28
2018-05-03T23:44:29.542Z,100012.69
2018-05-03T23:47:05.339Z,100020.44
2018-05-03T23:49:38.716Z,100028.05
2018-05-03T23:52:12.733Z,100020.80
2018-05-03T23:54:46.890Z,100023.58
2018-05-03T23:57:20.256Z,100019.13
2018-05-03T23:59:58.247Z,100020.46
